Hovedside
METAR-TAF:

METAR-TAF

Lufthavner :

Kolda, Senegal

breddegrad: 12-53N, lengdegrad: 014-58W, høyde over havet: 10 m

Gjeldene værobservasjon

Denne rapporten ble laget for 2 timer og 14 minutter siden, klokken 03:00 UTC
Vind 4 kt fra Vest
Temperatur 28°C
Luftfuktighet 66%
Trykk 1008 hPa
Sikt 10 km eller mer
ingen skyer under 1500 m og ingen bygeskyer

METAR: GOGK 190300Z 28004KT CAVOK 28/21 Q1008

Tid: 05:14 (05:14 UTC)


TAF: fraværende

Værobservasjoner og værvarsel for over 4000 flyplasser (METAR- og TAF-rapporter).

Tilgjengelige stasjoner er representert av de røde og gule prikkene på kartet.

Hold musepekeren over prikken for å se navnet på stasjonen.

Klikk så for å se værobservasjoner og -varsler.

For å forandre kartet kan du klikke på den grønne knappen med svart kryss for å zoome inn, på den grønne knappen med strek for å zoome ut, eller på de grønne pilene for å se tilstøtende kart.


METAR-TAF: